sensor_id;sensor_type;location;lat;lon;timestamp;P1;durP1;ratioP1;P2;durP2;ratioP2
53409;SDS011;66590;50.734;4.246;2023-11-18T00:01:38;23.27;;;16.25;;
53409;SDS011;66590;50.734;4.246;2023-11-18T00:04:05;22.73;;;15.20;;
53409;SDS011;66590;50.734;4.246;2023-11-18T00:06:41;21.85;;;14.50;;
53409;SDS011;66590;50.734;4.246;2023-11-18T00:11:47;22.55;;;15.05;;
53409;SDS011;66590;50.734;4.246;2023-11-18T00:14:20;23.83;;;14.55;;
53409;SDS011;66590;50.734;4.246;2023-11-18T00:16:47;23.52;;;14.10;;
53409;SDS011;66590;50.734;4.246;2023-11-18T00:19:20;20.40;;;14.15;;
53409;SDS011;66590;50.734;4.246;2023-11-18T00:21:49;22.60;;;15.23;;
53409;SDS011;66590;50.734;4.246;2023-11-18T00:24:22;22.00;;;14.73;;
53409;SDS011;66590;50.734;4.246;2023-11-18T00:26:55;21.13;;;13.80;;
53409;SDS011;66590;50.734;4.246;2023-11-18T00:29:22;20.40;;;14.00;;
53409;SDS011;66590;50.734;4.246;2023-11-18T00:32:02;18.35;;;13.18;;
53409;SDS011;66590;50.734;4.246;2023-11-18T00:34:36;20.65;;;13.02;;
53409;SDS011;66590;50.734;4.246;2023-11-18T00:37:12;18.85;;;12.82;;
53409;SDS011;66590;50.734;4.246;2023-11-18T00:42:12;19.80;;;12.20;;
53409;SDS011;66590;50.734;4.246;2023-11-18T00:44:45;20.30;;;12.52;;
53409;SDS011;66590;50.734;4.246;2023-11-18T00:47:12;17.52;;;11.98;;
53409;SDS011;66590;50.734;4.246;2023-11-18T00:49:45;15.70;;;11.40;;
53409;SDS011;66590;50.734;4.246;2023-11-18T00:52:21;18.97;;;12.63;;
53409;SDS011;66590;50.734;4.246;2023-11-18T00:54:48;17.63;;;12.57;;
53409;SDS011;66590;50.734;4.246;2023-11-18T00:57:21;20.58;;;12.35;;
53409;SDS011;66590;50.734;4.246;2023-11-18T00:59:48;19.52;;;11.88;;
53409;SDS011;66590;50.734;4.246;2023-11-18T01:02:21;18.77;;;11.45;;
53409;SDS011;66590;50.734;4.246;2023-11-18T01:04:54;15.95;;;10.65;;
53409;SDS011;66590;50.734;4.246;2023-11-18T01:07:30;18.05;;;9.40;;
53409;SDS011;66590;50.734;4.246;2023-11-18T01:12:37;15.52;;;9.35;;
53409;SDS011;66590;50.734;4.246;2023-11-18T01:15:10;14.18;;;9.23;;
53409;SDS011;66590;50.734;4.246;2023-11-18T01:17:37;16.23;;;9.52;;
53409;SDS011;66590;50.734;4.246;2023-11-18T01:20:11;15.23;;;10.47;;
53409;SDS011;66590;50.734;4.246;2023-11-18T01:22:40;17.83;;;10.10;;
53409;SDS011;66590;50.734;4.246;2023-11-18T01:27:40;13.85;;;9.20;;
53409;SDS011;66590;50.734;4.246;2023-11-18T01:30:14;17.98;;;9.10;;
53409;SDS011;66590;50.734;4.246;2023-11-18T01:32:41;14.98;;;9.80;;
53409;SDS011;66590;50.734;4.246;2023-11-18T01:35:09;20.50;;;9.95;;
53409;SDS011;66590;50.734;4.246;2023-11-18T01:37:44;16.85;;;9.35;;
53409;SDS011;66590;50.734;4.246;2023-11-18T01:40:11;20.17;;;9.32;;
53409;SDS011;66590;50.734;4.246;2023-11-18T01:42:44;14.55;;;9.13;;
53409;SDS011;66590;50.734;4.246;2023-11-18T01:45:11;16.50;;;8.32;;
53409;SDS011;66590;50.734;4.246;2023-11-18T01:47:44;13.13;;;8.63;;
53409;SDS011;66590;50.734;4.246;2023-11-18T01:50:12;14.27;;;8.25;;
53409;SDS011;66590;50.734;4.246;2023-11-18T01:52:49;17.85;;;7.65;;
53409;SDS011;66590;50.734;4.246;2023-11-18T01:55:17;16.73;;;7.50;;
53409;SDS011;66590;50.734;4.246;2023-11-18T01:57:50;14.35;;;7.90;;
53409;SDS011;66590;50.734;4.246;2023-11-18T02:00:17;11.50;;;6.85;;
53409;SDS011;66590;50.734;4.246;2023-11-18T02:02:51;15.68;;;7.05;;
53409;SDS011;66590;50.734;4.246;2023-11-18T02:05:25;13.13;;;6.60;;
53409;SDS011;66590;50.734;4.246;2023-11-18T02:08:00;11.35;;;6.35;;
53409;SDS011;66590;50.734;4.246;2023-11-18T02:10:34;12.55;;;6.55;;
53409;SDS011;66590;50.734;4.246;2023-11-18T02:13:12;10.93;;;5.32;;
53409;SDS011;66590;50.734;4.246;2023-11-18T02:15:49;13.82;;;5.88;;
53409;SDS011;66590;50.734;4.246;2023-11-18T02:18:25;9.68;;;5.50;;
53409;SDS011;66590;50.734;4.246;2023-11-18T02:21:02;17.63;;;5.93;;
53409;SDS011;66590;50.734;4.246;2023-11-18T02:23:31;9.93;;;5.80;;
53409;SDS011;66590;50.734;4.246;2023-11-18T02:26:06;15.60;;;6.18;;
53409;SDS011;66590;50.734;4.246;2023-11-18T02:31:14;13.43;;;5.50;;
53409;SDS011;66590;50.734;4.246;2023-11-18T02:33:54;10.30;;;4.88;;
53409;SDS011;66590;50.734;4.246;2023-11-18T02:36:35;11.38;;;6.30;;
53409;SDS011;66590;50.734;4.246;2023-11-18T02:39:15;10.60;;;5.00;;
53409;SDS011;66590;50.734;4.246;2023-11-18T02:41:55;8.48;;;4.57;;
53409;SDS011;66590;50.734;4.246;2023-11-18T02:44:29;14.63;;;5.43;;
53409;SDS011;66590;50.734;4.246;2023-11-18T02:47:04;11.73;;;4.13;;
53409;SDS011;66590;50.734;4.246;2023-11-18T02:49:32;7.88;;;4.82;;
53409;SDS011;66590;50.734;4.246;2023-11-18T02:52:01;12.10;;;4.90;;
53409;SDS011;66590;50.734;4.246;2023-11-18T02:54:34;14.55;;;4.35;;
53409;SDS011;66590;50.734;4.246;2023-11-18T02:57:03;10.27;;;4.40;;
53409;SDS011;66590;50.734;4.246;2023-11-18T02:59:36;12.52;;;4.43;;
53409;SDS011;66590;50.734;4.246;2023-11-18T03:02:03;12.57;;;4.90;;
53409;SDS011;66590;50.734;4.246;2023-11-18T03:04:30;14.13;;;4.30;;
53409;SDS011;66590;50.734;4.246;2023-11-18T03:07:05;7.80;;;4.00;;
53409;SDS011;66590;50.734;4.246;2023-11-18T03:09:32;12.88;;;4.28;;
53409;SDS011;66590;50.734;4.246;2023-11-18T03:12:08;11.77;;;4.28;;
53409;SDS011;66590;50.734;4.246;2023-11-18T03:14:41;9.35;;;4.15;;
53409;SDS011;66590;50.734;4.246;2023-11-18T03:17:15;11.93;;;4.25;;
53409;SDS011;66590;50.734;4.246;2023-11-18T03:19:50;10.73;;;4.30;;
53409;SDS011;66590;50.734;4.246;2023-11-18T03:22:17;13.00;;;3.88;;
53409;SDS011;66590;50.734;4.246;2023-11-18T03:24:44;10.43;;;4.03;;
53409;SDS011;66590;50.734;4.246;2023-11-18T03:27:19;9.38;;;3.53;;
53409;SDS011;66590;50.734;4.246;2023-11-18T03:29:46;8.52;;;3.72;;
53409;SDS011;66590;50.734;4.246;2023-11-18T03:32:19;13.75;;;3.85;;
53409;SDS011;66590;50.734;4.246;2023-11-18T03:34:46;11.70;;;4.53;;
53409;SDS011;66590;50.734;4.246;2023-11-18T03:37:19;10.48;;;4.18;;
53409;SDS011;66590;50.734;4.246;2023-11-18T03:39:46;14.00;;;3.65;;
53409;SDS011;66590;50.734;4.246;2023-11-18T03:42:21;7.75;;;3.85;;
53409;SDS011;66590;50.734;4.246;2023-11-18T03:44:55;13.68;;;4.22;;
53409;SDS011;66590;50.734;4.246;2023-11-18T03:47:28;13.80;;;3.63;;
53409;SDS011;66590;50.734;4.246;2023-11-18T03:50:01;9.07;;;3.10;;
53409;SDS011;66590;50.734;4.246;2023-11-18T03:52:28;11.55;;;3.33;;
53409;SDS011;66590;50.734;4.246;2023-11-18T03:55:03;11.68;;;3.42;;
53409;SDS011;66590;50.734;4.246;2023-11-18T03:57:31;8.02;;;4.20;;
53409;SDS011;66590;50.734;4.246;2023-11-18T03:59:58;13.52;;;3.63;;
53409;SDS011;66590;50.734;4.246;2023-11-18T04:02:31;14.23;;;3.80;;
53409;SDS011;66590;50.734;4.246;2023-11-18T04:04:58;11.43;;;3.20;;
53409;SDS011;66590;50.734;4.246;2023-11-18T04:07:25;11.00;;;3.28;;
53409;SDS011;66590;50.734;4.246;2023-11-18T04:09:58;12.88;;;3.30;;
53409;SDS011;66590;50.734;4.246;2023-11-18T04:12:25;8.27;;;3.22;;
53409;SDS011;66590;50.734;4.246;2023-11-18T04:15:00;10.70;;;2.72;;
53409;SDS011;66590;50.734;4.246;2023-11-18T04:17:27;11.57;;;3.22;;
53409;SDS011;66590;50.734;4.246;2023-11-18T04:20:00;10.68;;;3.00;;
53409;SDS011;66590;50.734;4.246;2023-11-18T04:22:34;12.25;;;3.13;;
53409;SDS011;66590;50.734;4.246;2023-11-18T04:25:05;9.25;;;2.80;;
53409;SDS011;66590;50.734;4.246;2023-11-18T04:27:38;9.60;;;3.13;;
53409;SDS011;66590;50.734;4.246;2023-11-18T04:30:13;10.30;;;2.70;;
53409;SDS011;66590;50.734;4.246;2023-11-18T04:32:46;7.00;;;2.50;;
53409;SDS011;66590;50.734;4.246;2023-11-18T04:35:13;12.38;;;2.83;;
53409;SDS011;66590;50.734;4.246;2023-11-18T04:37:40;10.32;;;2.58;;
53409;SDS011;66590;50.734;4.246;2023-11-18T04:40:13;9.57;;;2.95;;
53409;SDS011;66590;50.734;4.246;2023-11-18T04:42:40;10.60;;;3.00;;
53409;SDS011;66590;50.734;4.246;2023-11-18T04:45:16;5.68;;;2.58;;
53409;SDS011;66590;50.734;4.246;2023-11-18T04:47:43;9.40;;;2.70;;
53409;SDS011;66590;50.734;4.246;2023-11-18T04:50:10;11.02;;;2.63;;
53409;SDS011;66590;50.734;4.246;2023-11-18T04:52:43;10.98;;;2.58;;
53409;SDS011;66590;50.734;4.246;2023-11-18T04:55:10;10.82;;;2.40;;
53409;SDS011;66590;50.734;4.246;2023-11-18T04:57:43;8.18;;;2.78;;
53409;SDS011;66590;50.734;4.246;2023-11-18T05:00:11;12.75;;;2.53;;
53409;SDS011;66590;50.734;4.246;2023-11-18T05:02:40;8.98;;;2.55;;
53409;SDS011;66590;50.734;4.246;2023-11-18T05:05:14;11.48;;;2.90;;
53409;SDS011;66590;50.734;4.246;2023-11-18T05:07:41;12.55;;;2.92;;
53409;SDS011;66590;50.734;4.246;2023-11-18T05:10:16;6.70;;;2.33;;
53409;SDS011;66590;50.734;4.246;2023-11-18T05:12:42;7.60;;;2.40;;
53409;SDS011;66590;50.734;4.246;2023-11-18T05:15:16;7.50;;;2.33;;
53409;SDS011;66590;50.734;4.246;2023-11-18T05:17:45;9.80;;;2.58;;
53409;SDS011;66590;50.734;4.246;2023-11-18T05:20:19;8.48;;;2.58;;
53409;SDS011;66590;50.734;4.246;2023-11-18T05:22:52;9.88;;;2.15;;
53409;SDS011;66590;50.734;4.246;2023-11-18T05:25:25;7.00;;;2.78;;
53409;SDS011;66590;50.734;4.246;2023-11-18T05:27:52;9.65;;;2.45;;
53409;SDS011;66590;50.734;4.246;2023-11-18T05:30:19;6.25;;;2.85;;
53409;SDS011;66590;50.734;4.246;2023-11-18T05:32:54;6.60;;;2.20;;
53409;SDS011;66590;50.734;4.246;2023-11-18T05:35:21;6.53;;;2.40;;
53409;SDS011;66590;50.734;4.246;2023-11-18T05:37:54;6.53;;;2.53;;
53409;SDS011;66590;50.734;4.246;2023-11-18T05:40:21;9.95;;;3.35;;
53409;SDS011;66590;50.734;4.246;2023-11-18T05:42:54;7.00;;;2.38;;
53409;SDS011;66590;50.734;4.246;2023-11-18T05:45:21;8.13;;;3.03;;
53409;SDS011;66590;50.734;4.246;2023-11-18T05:47:48;7.35;;;2.20;;
53409;SDS011;66590;50.734;4.246;2023-11-18T05:50:23;8.25;;;2.38;;
53409;SDS011;66590;50.734;4.246;2023-11-18T05:52:50;10.93;;;3.00;;
53409;SDS011;66590;50.734;4.246;2023-11-18T05:55:18;6.30;;;2.50;;
53409;SDS011;66590;50.734;4.246;2023-11-18T05:57:51;10.45;;;2.60;;
53409;SDS011;66590;50.734;4.246;2023-11-18T06:00:18;8.38;;;2.80;;
53409;SDS011;66590;50.734;4.246;2023-11-18T06:03:01;7.30;;;2.85;;
53409;SDS011;66590;50.734;4.246;2023-11-18T06:05:30;11.40;;;3.22;;
53409;SDS011;66590;50.734;4.246;2023-11-18T06:08:03;6.95;;;2.92;;
53409;SDS011;66590;50.734;4.246;2023-11-18T06:10:31;8.15;;;2.90;;
53409;SDS011;66590;50.734;4.246;2023-11-18T06:13:04;8.05;;;2.70;;
53409;SDS011;66590;50.734;4.246;2023-11-18T06:15:37;12.05;;;3.67;;
53409;SDS011;66590;50.734;4.246;2023-11-18T06:18:04;11.30;;;3.10;;
53409;SDS011;66590;50.734;4.246;2023-11-18T06:20:39;7.18;;;2.90;;
53409;SDS011;66590;50.734;4.246;2023-11-18T06:23:06;9.13;;;3.08;;
53409;SDS011;66590;50.734;4.246;2023-11-18T06:25:39;9.60;;;2.88;;
53409;SDS011;66590;50.734;4.246;2023-11-18T06:28:13;8.88;;;3.22;;
53409;SDS011;66590;50.734;4.246;2023-11-18T06:30:46;10.18;;;3.08;;
53409;SDS011;66590;50.734;4.246;2023-11-18T06:33:19;10.25;;;3.10;;
53409;SDS011;66590;50.734;4.246;2023-11-18T06:35:48;9.52;;;3.28;;
53409;SDS011;66590;50.734;4.246;2023-11-18T06:40:54;11.40;;;3.20;;
53409;SDS011;66590;50.734;4.246;2023-11-18T06:43:21;10.85;;;3.05;;
53409;SDS011;66590;50.734;4.246;2023-11-18T06:45:54;14.90;;;2.90;;
53409;SDS011;66590;50.734;4.246;2023-11-18T06:48:21;11.13;;;2.83;;
53409;SDS011;66590;50.734;4.246;2023-11-18T06:50:50;8.52;;;3.10;;
53409;SDS011;66590;50.734;4.246;2023-11-18T06:55:50;11.27;;;3.28;;
53409;SDS011;66590;50.734;4.246;2023-11-18T06:58:23;9.90;;;3.60;;
53409;SDS011;66590;50.734;4.246;2023-11-18T07:00:50;13.15;;;3.67;;
53409;SDS011;66590;50.734;4.246;2023-11-18T07:03:23;10.57;;;3.45;;
53409;SDS011;66590;50.734;4.246;2023-11-18T07:05:59;9.87;;;4.27;;
53409;SDS011;66590;50.734;4.246;2023-11-18T07:08:32;8.57;;;3.90;;
53409;SDS011;66590;50.734;4.246;2023-11-18T07:11:06;12.15;;;3.88;;
53409;SDS011;66590;50.734;4.246;2023-11-18T07:13:39;14.00;;;4.30;;
53409;SDS011;66590;50.734;4.246;2023-11-18T07:16:12;14.77;;;4.38;;
53409;SDS011;66590;50.734;4.246;2023-11-18T07:18:46;11.75;;;4.20;;
53409;SDS011;66590;50.734;4.246;2023-11-18T07:21:15;9.05;;;4.00;;
53409;SDS011;66590;50.734;4.246;2023-11-18T07:26:15;9.25;;;4.22;;
53409;SDS011;66590;50.734;4.246;2023-11-18T07:28:48;15.50;;;4.60;;
53409;SDS011;66590;50.734;4.246;2023-11-18T07:31:15;12.55;;;4.75;;
53409;SDS011;66590;50.734;4.246;2023-11-18T07:33:48;9.40;;;4.93;;
53409;SDS011;66590;50.734;4.246;2023-11-18T07:36:17;13.93;;;5.40;;
53409;SDS011;66590;50.734;4.246;2023-11-18T07:38:44;10.98;;;5.10;;
53409;SDS011;66590;50.734;4.246;2023-11-18T07:41:20;11.10;;;5.28;;
53409;SDS011;66590;50.734;4.246;2023-11-18T07:43:46;11.70;;;5.97;;
53409;SDS011;66590;50.734;4.246;2023-11-18T07:46:20;12.32;;;5.90;;
53409;SDS011;66590;50.734;4.246;2023-11-18T07:48:48;14.73;;;5.88;;
53409;SDS011;66590;50.734;4.246;2023-11-18T07:51:23;13.70;;;6.07;;
53409;SDS011;66590;50.734;4.246;2023-11-18T07:56:29;12.70;;;7.03;;
53409;SDS011;66590;50.734;4.246;2023-11-18T07:58:56;17.83;;;7.47;;
53409;SDS011;66590;50.734;4.246;2023-11-18T08:01:29;13.18;;;7.10;;
53409;SDS011;66590;50.734;4.246;2023-11-18T08:03:56;12.55;;;7.18;;
53409;SDS011;66590;50.734;4.246;2023-11-18T08:06:25;16.02;;;7.88;;
53409;SDS011;66590;50.734;4.246;2023-11-18T08:08:58;15.45;;;8.02;;
53409;SDS011;66590;50.734;4.246;2023-11-18T08:11:25;15.35;;;7.93;;
53409;SDS011;66590;50.734;4.246;2023-11-18T08:13:59;17.55;;;7.88;;
53409;SDS011;66590;50.734;4.246;2023-11-18T08:16:32;15.80;;;7.43;;
53409;SDS011;66590;50.734;4.246;2023-11-18T08:19:06;15.57;;;8.07;;
53409;SDS011;66590;50.734;4.246;2023-11-18T08:21:35;13.90;;;7.75;;
53409;SDS011;66590;50.734;4.246;2023-11-18T08:26:35;11.95;;;7.30;;
53409;SDS011;66590;50.734;4.246;2023-11-18T08:29:08;13.23;;;8.23;;
53409;SDS011;66590;50.734;4.246;2023-11-18T08:31:36;12.55;;;7.75;;
53409;SDS011;66590;50.734;4.246;2023-11-18T08:34:12;17.73;;;8.55;;
53409;SDS011;66590;50.734;4.246;2023-11-18T08:36:47;17.33;;;8.27;;
53409;SDS011;66590;50.734;4.246;2023-11-18T08:41:53;16.70;;;8.25;;
53409;SDS011;66590;50.734;4.246;2023-11-18T08:44:27;13.38;;;7.80;;
53409;SDS011;66590;50.734;4.246;2023-11-18T08:46:54;16.27;;;8.38;;
53409;SDS011;66590;50.734;4.246;2023-11-18T08:49:28;14.77;;;8.23;;
53409;SDS011;66590;50.734;4.246;2023-11-18T08:51:56;16.45;;;7.47;;
53409;SDS011;66590;50.734;4.246;2023-11-18T08:54:29;14.73;;;7.53;;
53409;SDS011;66590;50.734;4.246;2023-11-18T08:56:56;16.38;;;7.25;;
53409;SDS011;66590;50.734;4.246;2023-11-18T08:59:29;15.20;;;7.57;;
53409;SDS011;66590;50.734;4.246;2023-11-18T09:01:56;12.13;;;7.40;;
53409;SDS011;66590;50.734;4.246;2023-11-18T09:04:29;11.48;;;7.03;;
53409;SDS011;66590;50.734;4.246;2023-11-18T09:07:00;12.05;;;6.68;;
53409;SDS011;66590;50.734;4.246;2023-11-18T09:09:33;12.23;;;7.53;;
53409;SDS011;66590;50.734;4.246;2023-11-18T09:12:07;12.85;;;7.22;;
53409;SDS011;66590;50.734;4.246;2023-11-18T09:14:40;13.43;;;7.20;;
53409;SDS011;66590;50.734;4.246;2023-11-18T09:17:07;13.68;;;7.72;;
53409;SDS011;66590;50.734;4.246;2023-11-18T09:19:40;12.20;;;6.68;;
53409;SDS011;66590;50.734;4.246;2023-11-18T09:22:09;10.55;;;7.43;;
53409;SDS011;66590;50.734;4.246;2023-11-18T09:27:09;9.00;;;7.32;;
53409;SDS011;66590;50.734;4.246;2023-11-18T09:29:36;14.35;;;7.70;;
53409;SDS011;66590;50.734;4.246;2023-11-18T09:32:09;11.70;;;8.27;;
53409;SDS011;66590;50.734;4.246;2023-11-18T09:34:36;12.70;;;7.22;;
53409;SDS011;66590;50.734;4.246;2023-11-18T09:37:11;14.57;;;7.88;;
53409;SDS011;66590;50.734;4.246;2023-11-18T09:39:38;14.95;;;8.25;;
53409;SDS011;66590;50.734;4.246;2023-11-18T09:42:12;12.00;;;7.45;;
53409;SDS011;66590;50.734;4.246;2023-11-18T09:44:46;12.63;;;7.43;;
53409;SDS011;66590;50.734;4.246;2023-11-18T09:47:20;11.48;;;8.02;;
53409;SDS011;66590;50.734;4.246;2023-11-18T09:49:50;13.30;;;8.55;;
53409;SDS011;66590;50.734;4.246;2023-11-18T09:52:31;13.02;;;7.72;;
53409;SDS011;66590;50.734;4.246;2023-11-18T09:55:08;12.55;;;8.05;;
53409;SDS011;66590;50.734;4.246;2023-11-18T09:57:48;12.75;;;8.27;;
53409;SDS011;66590;50.734;4.246;2023-11-18T10:00:27;11.57;;;7.32;;
53409;SDS011;66590;50.734;4.246;2023-11-18T10:03:02;13.10;;;8.70;;
53409;SDS011;66590;50.734;4.246;2023-11-18T10:05:29;17.83;;;8.70;;
53409;SDS011;66590;50.734;4.246;2023-11-18T10:07:58;14.23;;;8.20;;
53409;SDS011;66590;50.734;4.246;2023-11-18T10:10:31;14.45;;;8.38;;
53409;SDS011;66590;50.734;4.246;2023-11-18T10:12:59;9.82;;;7.15;;
53409;SDS011;66590;50.734;4.246;2023-11-18T10:15:32;9.98;;;6.85;;
53409;SDS011;66590;50.734;4.246;2023-11-18T10:18:00;12.70;;;7.32;;
53409;SDS011;66590;50.734;4.246;2023-11-18T10:20:44;9.82;;;6.57;;
53409;SDS011;66590;50.734;4.246;2023-11-18T10:23:13;10.18;;;7.22;;
53409;SDS011;66590;50.734;4.246;2023-11-18T10:25:49;8.55;;;6.15;;
53409;SDS011;66590;50.734;4.246;2023-11-18T10:28:23;8.45;;;6.47;;
53409;SDS011;66590;50.734;4.246;2023-11-18T10:30:58;10.07;;;5.80;;
53409;SDS011;66590;50.734;4.246;2023-11-18T10:33:26;9.43;;;5.53;;
53409;SDS011;66590;50.734;4.246;2023-11-18T10:35:59;9.43;;;4.90;;
53409;SDS011;66590;50.734;4.246;2023-11-18T10:38:28;7.15;;;5.05;;
53409;SDS011;66590;50.734;4.246;2023-11-18T10:41:02;6.63;;;4.47;;
53409;SDS011;66590;50.734;4.246;2023-11-18T10:43:37;4.93;;;4.10;;
53409;SDS011;66590;50.734;4.246;2023-11-18T10:46:11;7.47;;;4.43;;
53409;SDS011;66590;50.734;4.246;2023-11-18T10:51:20;6.80;;;3.28;;
53409;SDS011;66590;50.734;4.246;2023-11-18T10:53:49;3.90;;;3.17;;
53409;SDS011;66590;50.734;4.246;2023-11-18T10:56:24;5.43;;;3.20;;
53409;SDS011;66590;50.734;4.246;2023-11-18T10:58:58;3.97;;;2.90;;
53409;SDS011;66590;50.734;4.246;2023-11-18T11:01:32;7.38;;;3.10;;
53409;SDS011;66590;50.734;4.246;2023-11-18T11:04:00;3.88;;;2.65;;
53409;SDS011;66590;50.734;4.246;2023-11-18T11:06:41;6.90;;;2.80;;
53409;SDS011;66590;50.734;4.246;2023-11-18T11:09:10;3.40;;;2.72;;
53409;SDS011;66590;50.734;4.246;2023-11-18T11:14:12;3.60;;;2.78;;
53409;SDS011;66590;50.734;4.246;2023-11-18T11:16:50;4.85;;;2.90;;
53409;SDS011;66590;50.734;4.246;2023-11-18T11:19:24;5.10;;;2.92;;
53409;SDS011;66590;50.734;4.246;2023-11-18T11:22:04;3.28;;;2.28;;
53409;SDS011;66590;50.734;4.246;2023-11-18T11:24:36;4.78;;;2.42;;
53409;SDS011;66590;50.734;4.246;2023-11-18T11:27:22;3.20;;;2.30;;
53409;SDS011;66590;50.734;4.246;2023-11-18T11:29:54;3.15;;;2.28;;
53409;SDS011;66590;50.734;4.246;2023-11-18T11:32:39;2.53;;;2.33;;
53409;SDS011;66590;50.734;4.246;2023-11-18T11:35:19;3.97;;;2.63;;
53409;SDS011;66590;50.734;4.246;2023-11-18T11:37:56;4.88;;;2.10;;
53409;SDS011;66590;50.734;4.246;2023-11-18T11:40:26;3.13;;;1.85;;
53409;SDS011;66590;50.734;4.246;2023-11-18T11:43:00;3.05;;;1.70;;
53409;SDS011;66590;50.734;4.246;2023-11-18T11:45:28;1.48;;;1.30;;
53409;SDS011;66590;50.734;4.246;2023-11-18T11:48:02;2.22;;;2.00;;
53409;SDS011;66590;50.734;4.246;2023-11-18T11:50:32;2.78;;;1.80;;
53409;SDS011;66590;50.734;4.246;2023-11-18T11:53:10;2.55;;;1.85;;
53409;SDS011;66590;50.734;4.246;2023-11-18T11:55:47;4.38;;;2.10;;
53409;SDS011;66590;50.734;4.246;2023-11-18T11:58:25;3.85;;;1.90;;
53409;SDS011;66590;50.734;4.246;2023-11-18T12:00:52;4.03;;;2.15;;
53409;SDS011;66590;50.734;4.246;2023-11-18T12:03:25;2.65;;;1.83;;
53409;SDS011;66590;50.734;4.246;2023-11-18T12:05:54;1.75;;;1.38;;
53409;SDS011;66590;50.734;4.246;2023-11-18T12:08:21;3.58;;;1.60;;
53409;SDS011;66590;50.734;4.246;2023-11-18T12:11:05;3.03;;;1.55;;
53409;SDS011;66590;50.734;4.246;2023-11-18T12:13:59;1.85;;;1.67;;
53409;SDS011;66590;50.734;4.246;2023-11-18T12:19:31;1.80;;;1.20;;
53409;SDS011;66590;50.734;4.246;2023-11-18T12:22:05;1.40;;;1.27;;
53409;SDS011;66590;50.734;4.246;2023-11-18T12:24:32;3.15;;;1.60;;
53409;SDS011;66590;50.734;4.246;2023-11-18T12:27:07;1.45;;;1.30;;
53409;SDS011;66590;50.734;4.246;2023-11-18T12:29:42;1.52;;;1.30;;
53409;SDS011;66590;50.734;4.246;2023-11-18T12:32:24;1.30;;;1.20;;
53409;SDS011;66590;50.734;4.246;2023-11-18T12:35:41;1.33;;;1.23;;
53409;SDS011;66590;50.734;4.246;2023-11-18T12:38:45;1.23;;;1.10;;
53409;SDS011;66590;50.734;4.246;2023-11-18T12:41:33;1.98;;;1.25;;
53409;SDS011;66590;50.734;4.246;2023-11-18T12:44:15;1.75;;;1.27;;
53409;SDS011;66590;50.734;4.246;2023-11-18T12:46:52;2.05;;;1.13;;
53409;SDS011;66590;50.734;4.246;2023-11-18T12:51:54;1.10;;;1.10;;
53409;SDS011;66590;50.734;4.246;2023-11-18T12:54:21;1.42;;;1.30;;
53409;SDS011;66590;50.734;4.246;2023-11-18T12:56:55;1.40;;;1.30;;
53409;SDS011;66590;50.734;4.246;2023-11-18T12:59:24;1.52;;;1.42;;
53409;SDS011;66590;50.734;4.246;2023-11-18T13:01:57;1.35;;;1.00;;
53409;SDS011;66590;50.734;4.246;2023-11-18T13:04:25;1.30;;;1.20;;
53409;SDS011;66590;50.734;4.246;2023-11-18T13:06:52;1.23;;;1.13;;
53409;SDS011;66590;50.734;4.246;2023-11-18T13:09:25;1.73;;;1.63;;
53409;SDS011;66590;50.734;4.246;2023-11-18T13:11:53;1.48;;;1.05;;
53409;SDS011;66590;50.734;4.246;2023-11-18T13:14:31;1.65;;;1.55;;
53409;SDS011;66590;50.734;4.246;2023-11-18T13:17:08;1.40;;;1.20;;
53409;SDS011;66590;50.734;4.246;2023-11-18T13:19:49;1.75;;;1.30;;
53409;SDS011;66590;50.734;4.246;2023-11-18T13:22:16;1.45;;;1.35;;
53409;SDS011;66590;50.734;4.246;2023-11-18T13:25:08;1.42;;;1.33;;
53409;SDS011;66590;50.734;4.246;2023-11-18T13:27:41;3.50;;;1.77;;
53409;SDS011;66590;50.734;4.246;2023-11-18T13:30:17;1.70;;;1.42;;
53409;SDS011;66590;50.734;4.246;2023-11-18T13:35:23;2.17;;;1.63;;
53409;SDS011;66590;50.734;4.246;2023-11-18T13:37:51;1.92;;;1.73;;
53409;SDS011;66590;50.734;4.246;2023-11-18T13:40:25;4.65;;;3.13;;
53409;SDS011;66590;50.734;4.246;2023-11-18T13:43:01;2.50;;;2.20;;
53409;SDS011;66590;50.734;4.246;2023-11-18T13:45:36;3.10;;;2.25;;
53409;SDS011;66590;50.734;4.246;2023-11-18T13:48:04;2.13;;;1.50;;
53409;SDS011;66590;50.734;4.246;2023-11-18T13:50:40;1.73;;;1.63;;
53409;SDS011;66590;50.734;4.246;2023-11-18T13:53:07;1.60;;;1.50;;
53409;SDS011;66590;50.734;4.246;2023-11-18T13:55:41;2.10;;;1.90;;
53409;SDS011;66590;50.734;4.246;2023-11-18T13:58:14;2.17;;;1.95;;
53409;SDS011;66590;50.734;4.246;2023-11-18T14:00:49;3.00;;;2.47;;
53409;SDS011;66590;50.734;4.246;2023-11-18T14:03:29;2.45;;;1.98;;
53409;SDS011;66590;50.734;4.246;2023-11-18T14:06:05;2.00;;;1.88;;
53409;SDS011;66590;50.734;4.246;2023-11-18T14:08:32;2.65;;;1.92;;
53409;SDS011;66590;50.734;4.246;2023-11-18T14:11:06;2.70;;;2.27;;
53409;SDS011;66590;50.734;4.246;2023-11-18T14:13:42;2.42;;;1.75;;
53409;SDS011;66590;50.734;4.246;2023-11-18T14:16:17;2.90;;;2.60;;
53409;SDS011;66590;50.734;4.246;2023-11-18T14:21:30;2.63;;;1.70;;
53409;SDS011;66590;50.734;4.246;2023-11-18T14:23:57;1.65;;;1.55;;
53409;SDS011;66590;50.734;4.246;2023-11-18T14:26:30;7.65;;;5.65;;
53409;SDS011;66590;50.734;4.246;2023-11-18T14:28:57;2.50;;;2.10;;
53409;SDS011;66590;50.734;4.246;2023-11-18T14:31:32;2.42;;;1.83;;
53409;SDS011;66590;50.734;4.246;2023-11-18T14:33:59;2.13;;;1.92;;
53409;SDS011;66590;50.734;4.246;2023-11-18T14:36:32;1.92;;;1.50;;
53409;SDS011;66590;50.734;4.246;2023-11-18T14:38:59;4.05;;;2.80;;
53409;SDS011;66590;50.734;4.246;2023-11-18T14:41:32;1.63;;;1.40;;
53409;SDS011;66590;50.734;4.246;2023-11-18T14:43:59;1.73;;;1.60;;
53409;SDS011;66590;50.734;4.246;2023-11-18T14:46:26;2.60;;;2.05;;
53409;SDS011;66590;50.734;4.246;2023-11-18T14:49:01;2.83;;;2.20;;
53409;SDS011;66590;50.734;4.246;2023-11-18T14:51:28;7.28;;;4.53;;
53409;SDS011;66590;50.734;4.246;2023-11-18T14:54:01;2.97;;;1.58;;
53409;SDS011;66590;50.734;4.246;2023-11-18T14:56:29;1.88;;;1.75;;
53409;SDS011;66590;50.734;4.246;2023-11-18T14:58:56;8.60;;;7.18;;
53409;SDS011;66590;50.734;4.246;2023-11-18T15:01:29;5.97;;;4.28;;
53409;SDS011;66590;50.734;4.246;2023-11-18T15:03:56;1.60;;;1.50;;
53409;SDS011;66590;50.734;4.246;2023-11-18T15:06:31;2.13;;;1.90;;
53409;SDS011;66590;50.734;4.246;2023-11-18T15:08:58;3.53;;;2.85;;
53409;SDS011;66590;50.734;4.246;2023-11-18T15:11:25;1.85;;;1.75;;
53409;SDS011;66590;50.734;4.246;2023-11-18T15:13:58;2.72;;;2.40;;
53409;SDS011;66590;50.734;4.246;2023-11-18T15:16:25;2.00;;;1.75;;
53409;SDS011;66590;50.734;4.246;2023-11-18T15:18:58;2.30;;;2.10;;
53409;SDS011;66590;50.734;4.246;2023-11-18T15:21:33;1.88;;;1.67;;
53409;SDS011;66590;50.734;4.246;2023-11-18T15:24:07;1.60;;;1.50;;
53409;SDS011;66590;50.734;4.246;2023-11-18T15:26:40;1.50;;;1.40;;
53409;SDS011;66590;50.734;4.246;2023-11-18T15:29:17;2.72;;;1.58;;
53409;SDS011;66590;50.734;4.246;2023-11-18T15:31:44;1.48;;;1.38;;
53409;SDS011;66590;50.734;4.246;2023-11-18T15:34:11;3.05;;;1.67;;
53409;SDS011;66590;50.734;4.246;2023-11-18T15:36:52;1.90;;;1.80;;
53409;SDS011;66590;50.734;4.246;2023-11-18T15:39:25;2.10;;;2.00;;
53409;SDS011;66590;50.734;4.246;2023-11-18T15:41:58;2.47;;;2.20;;
53409;SDS011;66590;50.734;4.246;2023-11-18T15:44:31;2.78;;;2.50;;
53409;SDS011;66590;50.734;4.246;2023-11-18T15:46:58;2.38;;;1.88;;
53409;SDS011;66590;50.734;4.246;2023-11-18T15:49:31;4.68;;;4.03;;
53409;SDS011;66590;50.734;4.246;2023-11-18T15:52:00;2.92;;;2.50;;
53409;SDS011;66590;50.734;4.246;2023-11-18T15:54:33;5.00;;;2.83;;
53409;SDS011;66590;50.734;4.246;2023-11-18T15:57:06;2.95;;;2.75;;